createdAt,value
2023-03-28T00:02:41.783Z,2.85
2023-03-28T00:05:44.903Z,2.60
2023-03-28T00:08:51.189Z,3.00
2023-03-28T00:11:54.132Z,3.00
2023-03-28T00:14:57.551Z,2.78
2023-03-28T00:18:01.746Z,2.83
2023-03-28T00:21:07.984Z,2.85
2023-03-28T00:24:13.943Z,2.90
2023-03-28T00:27:17.797Z,3.17
2023-03-28T00:30:20.924Z,3.10
2023-03-28T00:33:25.036Z,2.95
2023-03-28T00:36:29.231Z,2.58
2023-03-28T00:39:34.526Z,2.60
2023-03-28T00:42:42.745Z,2.50
2023-03-28T00:45:55.940Z,2.58
2023-03-28T00:49:12.316Z,2.50
2023-03-28T00:52:18.032Z,2.75
2023-03-28T00:55:25.814Z,2.53
2023-03-28T00:58:33.367Z,2.58
2023-03-28T01:01:37.072Z,2.72
2023-03-28T01:04:46.556Z,2.42
2023-03-28T01:07:54.544Z,2.05
2023-03-28T01:11:00.832Z,2.42
2023-03-28T01:14:07.134Z,2.33
2023-03-28T01:17:10.847Z,2.13
2023-03-28T01:20:29.249Z,2.38
2023-03-28T01:24:11.659Z,2.08
2023-03-28T01:27:24.402Z,2.22
2023-03-28T01:30:48.823Z,2.35
2023-03-28T01:34:37.757Z,1.80
2023-03-28T01:37:48.939Z,2.30
2023-03-28T01:41:00.595Z,2.40
2023-03-28T01:44:14.150Z,2.00
2023-03-28T01:47:23.859Z,1.92
2023-03-28T01:50:31.931Z,1.90
2023-03-28T01:53:44.173Z,2.03
2023-03-28T01:56:53.257Z,2.20
2023-03-28T02:00:13.069Z,2.00
2023-03-28T02:03:37.631Z,1.88
2023-03-28T02:06:52.692Z,2.10
2023-03-28T02:10:04.733Z,1.90
2023-03-28T02:13:36.335Z,2.03
2023-03-28T02:17:04.777Z,1.83
2023-03-28T02:20:38.671Z,2.00
2023-03-28T02:23:46.619Z,1.90
2023-03-28T02:27:09.579Z,1.90
2023-03-28T02:30:33.089Z,1.73
2023-03-28T02:33:41.549Z,1.80
2023-03-28T02:36:49.782Z,1.77
2023-03-28T02:40:07.230Z,1.90
2023-03-28T02:43:44.848Z,2.10
2023-03-28T02:46:56.589Z,1.65
2023-03-28T02:50:11.150Z,1.90
2023-03-28T02:53:22.245Z,1.80
2023-03-28T02:56:32.874Z,1.80
2023-03-28T02:59:47.569Z,1.52
2023-03-28T03:02:52.680Z,1.85
2023-03-28T03:05:58.108Z,1.60
2023-03-28T03:12:04.564Z,1.52
2023-03-28T03:15:10.624Z,1.60
2023-03-28T03:18:34.911Z,1.52
2023-03-28T03:21:38.177Z,1.80
2023-03-28T03:24:41.126Z,1.60
2023-03-28T03:27:44.311Z,1.70
2023-03-28T03:30:49.510Z,1.55
2023-03-28T03:33:58.279Z,1.70
2023-03-28T03:37:05.786Z,1.83
2023-03-28T03:40:10.343Z,1.95
2023-03-28T03:43:16.411Z,1.40
2023-03-28T03:46:22.156Z,1.50
2023-03-28T03:49:27.052Z,1.20
2023-03-28T03:52:30.071Z,1.45
2023-03-28T03:55:33.536Z,1.67
2023-03-28T03:58:36.509Z,1.77
2023-03-28T04:01:45.184Z,1.80
2023-03-28T04:05:00.507Z,1.38
2023-03-28T04:08:16.888Z,1.60
2023-03-28T04:11:19.832Z,1.38
2023-03-28T04:14:23.214Z,1.20
2023-03-28T04:17:34.784Z,1.23
2023-03-28T04:20:43.379Z,1.55
2023-03-28T04:23:48.427Z,1.30
2023-03-28T04:27:09.877Z,1.50
2023-03-28T04:30:13.745Z,1.40
2023-03-28T04:33:37.935Z,1.60
2023-03-28T04:36:41.329Z,1.42
2023-03-28T04:39:47.164Z,1.30
2023-03-28T04:43:22.436Z,1.20
2023-03-28T04:46:29.676Z,1.30
2023-03-28T04:49:36.450Z,1.30
2023-03-28T04:52:39.693Z,1.30
2023-03-28T04:55:44.132Z,1.42
2023-03-28T04:58:55.919Z,1.40
2023-03-28T05:02:02.745Z,1.27
2023-03-28T05:05:21.120Z,1.38
2023-03-28T05:08:26.274Z,1.60
2023-03-28T05:11:29.408Z,1.40
2023-03-28T05:14:33.519Z,1.50
2023-03-28T05:17:50.911Z,1.20
2023-03-28T05:21:08.253Z,1.27
2023-03-28T05:24:11.316Z,1.20
2023-03-28T05:27:14.265Z,1.40
2023-03-28T05:30:17.518Z,1.10
2023-03-28T05:33:20.519Z,1.58
2023-03-28T05:36:26.250Z,1.15
2023-03-28T05:39:29.354Z,1.23
2023-03-28T05:42:41.453Z,1.50
2023-03-28T05:45:48.797Z,1.20
2023-03-28T05:48:56.049Z,1.13
2023-03-28T05:52:00.437Z,1.30
2023-03-28T05:55:03.581Z,1.17
2023-03-28T05:58:07.833Z,1.30
2023-03-28T06:01:17.993Z,1.08
2023-03-28T06:04:28.011Z,1.10
2023-03-28T06:07:41.873Z,1.13
2023-03-28T06:10:46.791Z,1.40
2023-03-28T06:13:56.976Z,1.20
2023-03-28T06:17:00.318Z,1.08
2023-03-28T06:20:12.076Z,1.30
2023-03-28T06:23:16.352Z,1.15
2023-03-28T06:26:19.598Z,1.20
2023-03-28T06:29:22.525Z,1.15
2023-03-28T06:32:34.230Z,1.20
2023-03-28T06:35:38.177Z,1.02
2023-03-28T06:38:42.489Z,1.00
2023-03-28T06:41:45.566Z,1.67
2023-03-28T06:44:48.483Z,1.23
2023-03-28T06:48:03.572Z,1.50
2023-03-28T06:51:27.294Z,1.27
2023-03-28T06:54:31.993Z,1.63
2023-03-28T06:57:35.222Z,1.88
2023-03-28T07:00:48.607Z,1.95
2023-03-28T07:04:09.653Z,1.52
2023-03-28T07:07:14.487Z,1.90
2023-03-28T07:10:19.945Z,1.95
2023-03-28T07:13:23.720Z,1.80
2023-03-28T07:16:34.600Z,1.67
2023-03-28T07:19:37.622Z,1.92
2023-03-28T07:22:40.529Z,1.73
2023-03-28T07:25:44.844Z,2.13
2023-03-28T07:28:47.729Z,1.40
2023-03-28T07:31:50.759Z,1.50
2023-03-28T07:34:54.986Z,1.77
2023-03-28T07:38:02.924Z,1.80
2023-03-28T07:41:12.863Z,2.00
2023-03-28T07:44:15.851Z,1.95
2023-03-28T07:47:18.950Z,2.03
2023-03-28T07:50:24.760Z,2.08
2023-03-28T07:53:29.099Z,2.00
2023-03-28T07:56:33.758Z,2.00
2023-03-28T07:59:57.631Z,1.90
2023-03-28T08:03:01.311Z,2.20
2023-03-28T08:06:16.611Z,1.77
2023-03-28T08:09:28.011Z,2.30
2023-03-28T08:12:45.335Z,2.08
2023-03-28T08:15:53.013Z,2.20
2023-03-28T08:19:10.130Z,2.33
2023-03-28T08:22:30.774Z,2.70
2023-03-28T08:26:05.040Z,3.00
2023-03-28T08:29:09.951Z,2.67
2023-03-28T08:32:15.105Z,3.08
2023-03-28T08:35:18.593Z,3.33
2023-03-28T08:38:23.699Z,2.78
2023-03-28T08:41:42.215Z,2.90
2023-03-28T08:45:04.553Z,3.28
2023-03-28T08:48:19.075Z,3.10
2023-03-28T08:51:27.646Z,3.47
2023-03-28T08:54:38.840Z,3.35
2023-03-28T08:57:42.956Z,3.78
2023-03-28T09:00:47.742Z,3.10
2023-03-28T09:03:51.243Z,3.50
2023-03-28T09:07:04.097Z,3.88
2023-03-28T09:10:20.833Z,3.80
2023-03-28T09:13:45.167Z,3.63
2023-03-28T09:17:03.017Z,3.75
2023-03-28T09:20:19.389Z,4.22
2023-03-28T09:24:08.882Z,4.07
2023-03-28T09:27:20.666Z,3.50
2023-03-28T09:30:29.883Z,4.15
2023-03-28T09:33:37.202Z,4.47
2023-03-28T09:36:48.989Z,4.32
2023-03-28T09:39:56.464Z,4.28
2023-03-28T09:43:16.947Z,4.18
2023-03-28T09:46:42.665Z,5.03
2023-03-28T09:50:21.330Z,4.20
2023-03-28T09:53:33.139Z,4.00
2023-03-28T09:56:39.341Z,4.18
2023-03-28T10:00:07.425Z,4.20
2023-03-28T10:03:32.325Z,4.40
2023-03-28T10:06:40.155Z,4.88
2023-03-28T10:09:49.621Z,4.28
2023-03-28T10:12:58.453Z,4.90
2023-03-28T10:16:03.666Z,4.60
2023-03-28T10:19:26.378Z,4.00
2023-03-28T10:22:57.599Z,4.50
2023-03-28T10:26:04.558Z,4.82
2023-03-28T10:29:08.833Z,4.97
2023-03-28T10:32:14.723Z,4.40
2023-03-28T10:35:27.988Z,5.35
2023-03-28T10:38:50.974Z,5.35
2023-03-28T10:42:12.843Z,5.30
2023-03-28T10:45:33.190Z,5.18
2023-03-28T10:48:39.268Z,4.60
2023-03-28T10:51:47.483Z,4.95
2023-03-28T10:55:04.155Z,5.15
2023-03-28T10:58:35.127Z,4.85
2023-03-28T11:01:51.637Z,4.85
2023-03-28T11:04:59.840Z,4.50
2023-03-28T11:08:26.421Z,4.15
2023-03-28T11:11:48.042Z,4.25
2023-03-28T11:15:02.750Z,3.65
2023-03-28T11:18:27.486Z,4.18
2023-03-28T11:21:40.913Z,4.80
2023-03-28T11:24:52.796Z,4.40
2023-03-28T11:28:37.771Z,4.97
2023-03-28T11:32:10.021Z,4.75
2023-03-28T11:35:18.661Z,4.43
2023-03-28T11:38:28.660Z,4.40
2023-03-28T11:41:34.583Z,4.75
2023-03-28T11:44:57.373Z,4.93
2023-03-28T11:48:05.936Z,5.05
2023-03-28T11:51:16.057Z,5.25
2023-03-28T11:54:32.213Z,4.45
2023-03-28T11:57:40.290Z,4.55
2023-03-28T12:00:48.101Z,4.60
2023-03-28T12:04:06.150Z,4.70
2023-03-28T12:07:17.108Z,4.55
2023-03-28T12:10:25.200Z,4.43
2023-03-28T12:13:41.756Z,4.07
2023-03-28T12:16:53.278Z,4.68
2023-03-28T12:19:59.031Z,4.45
2023-03-28T12:23:09.275Z,4.35
2023-03-28T12:26:38.581Z,3.92
2023-03-28T12:29:47.042Z,4.93
2023-03-28T12:33:02.883Z,4.68
2023-03-28T12:36:18.488Z,4.38
2023-03-28T12:39:35.676Z,4.53
2023-03-28T12:42:47.372Z,4.38
2023-03-28T12:45:57.285Z,4.63
2023-03-28T12:49:05.944Z,4.40
2023-03-28T12:52:15.671Z,5.05
2023-03-28T12:55:45.514Z,4.70
2023-03-28T12:58:53.033Z,5.00
2023-03-28T13:02:12.793Z,5.78
2023-03-28T13:05:33.974Z,4.50
2023-03-28T13:08:49.550Z,4.68
2023-03-28T13:11:59.618Z,4.80
2023-03-28T13:15:23.959Z,4.65
2023-03-28T13:18:32.639Z,4.85
2023-03-28T13:21:46.155Z,4.97
2023-03-28T13:24:49.210Z,5.00
2023-03-28T13:27:54.418Z,5.00
2023-03-28T13:31:09.299Z,5.03
2023-03-28T13:34:22.844Z,4.32
2023-03-28T13:37:38.270Z,4.82
2023-03-28T13:40:46.246Z,4.90
2023-03-28T13:43:55.088Z,4.93
2023-03-28T13:46:58.288Z,5.18
2023-03-28T13:50:06.123Z,4.97
2023-03-28T13:53:10.785Z,5.05
2023-03-28T13:56:26.600Z,5.00
2023-03-28T13:59:35.077Z,4.88
2023-03-28T14:02:42.264Z,5.57
2023-03-28T14:05:47.083Z,5.13
2023-03-28T14:08:52.609Z,5.05
2023-03-28T14:11:57.656Z,5.28
2023-03-28T14:15:02.204Z,5.15
2023-03-28T14:18:08.571Z,4.80
2023-03-28T14:21:12.221Z,5.60
2023-03-28T14:24:22.963Z,5.20
2023-03-28T14:27:36.891Z,4.95
2023-03-28T14:30:41.229Z,4.90
2023-03-28T14:33:47.436Z,4.63
2023-03-28T14:37:00.936Z,4.50
2023-03-28T14:40:29.337Z,4.80
2023-03-28T14:43:32.710Z,4.65
2023-03-28T14:46:36.399Z,4.47
2023-03-28T14:49:39.446Z,4.97
2023-03-28T14:52:44.510Z,5.22
2023-03-28T14:55:51.086Z,4.68
2023-03-28T14:58:56.501Z,5.03
2023-03-28T15:02:01.819Z,5.18
2023-03-28T15:05:08.341Z,4.70
2023-03-28T15:08:25.474Z,4.60
2023-03-28T15:11:34.142Z,5.05
2023-03-28T15:14:41.249Z,4.35
2023-03-28T15:17:45.956Z,4.18
2023-03-28T15:20:52.600Z,4.72
2023-03-28T15:24:00.911Z,4.32
2023-03-28T15:27:08.704Z,4.45
2023-03-28T15:30:16.239Z,5.28
2023-03-28T15:33:22.959Z,4.97
2023-03-28T15:36:30.170Z,4.93
2023-03-28T15:39:35.290Z,4.72
2023-03-28T15:42:39.713Z,4.13
2023-03-28T15:45:44.250Z,4.78
2023-03-28T15:48:47.294Z,4.38
2023-03-28T15:51:53.722Z,4.53
2023-03-28T15:54:58.146Z,4.50
2023-03-28T15:58:04.923Z,4.75
2023-03-28T16:01:24.691Z,4.80
2023-03-28T16:04:29.051Z,2.90
2023-03-28T16:07:36.921Z,2.50
2023-03-28T16:10:40.348Z,2.30
2023-03-28T16:14:04.834Z,2.00
2023-03-28T16:17:29.861Z,1.67
2023-03-28T16:20:46.132Z,2.10
2023-03-28T16:23:49.291Z,2.15
2023-03-28T16:26:52.240Z,2.08
2023-03-28T16:29:56.817Z,1.83
2023-03-28T16:32:59.879Z,2.10
2023-03-28T16:36:03.039Z,2.20
2023-03-28T16:39:06.354Z,2.25
2023-03-28T16:42:09.411Z,2.08
2023-03-28T16:45:14.268Z,2.42
2023-03-28T16:48:17.292Z,1.80
2023-03-28T16:51:20.232Z,2.13
2023-03-28T16:54:23.335Z,2.20
2023-03-28T16:57:26.375Z,2.30
2023-03-28T17:00:30.752Z,2.10
2023-03-28T17:03:34.048Z,2.00
2023-03-28T17:06:36.913Z,2.33
2023-03-28T17:09:39.906Z,2.08
2023-03-28T17:12:43.097Z,2.28
2023-03-28T17:15:47.686Z,2.17
2023-03-28T17:18:51.233Z,1.83
2023-03-28T17:21:54.270Z,3.33
2023-03-28T17:24:57.556Z,2.20
2023-03-28T17:28:00.744Z,1.90
2023-03-28T17:31:08.119Z,1.83
2023-03-28T17:34:12.693Z,1.70
2023-03-28T17:37:15.730Z,1.95
2023-03-28T17:40:18.996Z,1.88
2023-03-28T17:43:21.939Z,2.05
2023-03-28T17:46:26.231Z,1.50
2023-03-28T17:49:29.196Z,1.55
2023-03-28T17:52:32.318Z,1.27
2023-03-28T17:55:35.514Z,1.10
2023-03-28T17:58:38.791Z,1.30
2023-03-28T18:01:43.150Z,1.30
2023-03-28T18:04:46.152Z,1.23
2023-03-28T18:07:56.599Z,1.33
2023-03-28T18:11:01.923Z,1.20
2023-03-28T18:14:04.829Z,1.08
2023-03-28T18:17:09.458Z,1.15
2023-03-28T18:20:13.271Z,1.00
2023-03-28T18:23:16.316Z,1.10
2023-03-28T18:26:19.342Z,0.98
2023-03-28T18:29:22.392Z,1.42
2023-03-28T18:32:26.781Z,1.25
2023-03-28T18:35:30.464Z,1.08
2023-03-28T18:38:38.206Z,1.17
2023-03-28T18:41:41.148Z,1.30
2023-03-28T18:44:44.019Z,0.90
2023-03-28T18:47:48.342Z,0.93
2023-03-28T18:50:51.558Z,0.85
2023-03-28T18:53:55.009Z,0.85
2023-03-28T18:56:58.273Z,1.02
2023-03-28T19:00:01.211Z,0.93
2023-03-28T19:03:09.103Z,1.20
2023-03-28T19:06:13.579Z,0.90
2023-03-28T19:09:16.970Z,1.00
2023-03-28T19:12:19.896Z,1.00
2023-03-28T19:15:22.861Z,1.20
2023-03-28T19:18:27.448Z,1.27
2023-03-28T19:21:30.809Z,0.77
2023-03-28T19:24:34.340Z,0.90
2023-03-28T19:27:37.740Z,0.70
2023-03-28T19:30:40.783Z,1.40
2023-03-28T19:33:45.144Z,1.30
2023-03-28T19:36:48.467Z,1.38
2023-03-28T19:39:51.544Z,1.27
2023-03-28T19:42:54.510Z,1.50
2023-03-28T19:46:02.646Z,1.52
2023-03-28T19:49:08.044Z,1.30
2023-03-28T19:52:11.014Z,1.40
2023-03-28T19:55:14.049Z,1.60
2023-03-28T19:58:17.475Z,1.50
2023-03-28T20:01:20.814Z,1.50
2023-03-28T20:04:27.618Z,1.52
2023-03-28T20:07:30.565Z,1.50
2023-03-28T20:10:33.646Z,1.58
2023-03-28T20:13:36.740Z,1.52
2023-03-28T20:16:39.961Z,1.80
2023-03-28T20:19:44.211Z,1.33
2023-03-28T20:22:47.135Z,1.50
2023-03-28T20:25:50.768Z,1.52
2023-03-28T20:28:56.933Z,1.88
2023-03-28T20:32:00.639Z,2.00
2023-03-28T20:35:06.267Z,2.50
2023-03-28T20:38:09.653Z,2.22
2023-03-28T20:41:13.084Z,2.30
2023-03-28T20:44:16.570Z,1.95
2023-03-28T20:47:25.136Z,2.08
2023-03-28T20:50:33.676Z,2.47
2023-03-28T20:53:36.679Z,1.90
2023-03-28T20:56:39.625Z,2.05
2023-03-28T20:59:42.693Z,2.08
2023-03-28T21:02:53.494Z,2.30
2023-03-28T21:05:57.889Z,1.75
2023-03-28T21:09:02.187Z,2.08
2023-03-28T21:12:05.368Z,2.00
2023-03-28T21:15:10.134Z,1.80
2023-03-28T21:18:13.125Z,2.22
2023-03-28T21:21:19.339Z,2.05
2023-03-28T21:24:22.505Z,2.35
2023-03-28T21:27:25.522Z,1.95
2023-03-28T21:30:28.537Z,1.60
2023-03-28T21:33:32.182Z,1.83
2023-03-28T21:36:36.550Z,1.95
2023-03-28T21:39:39.873Z,1.73
2023-03-28T21:42:42.791Z,2.30
2023-03-28T21:45:46.248Z,1.63
2023-03-28T21:48:50.049Z,1.90
2023-03-28T21:51:54.350Z,1.70
2023-03-28T21:54:57.289Z,1.55
2023-03-28T21:58:00.511Z,1.90
2023-03-28T22:01:04.869Z,1.65
2023-03-28T22:04:08.113Z,1.70
2023-03-28T22:07:12.363Z,1.95
2023-03-28T22:10:15.546Z,1.63
2023-03-28T22:13:18.513Z,1.60
2023-03-28T22:16:21.763Z,1.73
2023-03-28T22:19:25.257Z,1.70
2023-03-28T22:22:29.774Z,1.70
2023-03-28T22:25:34.882Z,1.73
2023-03-28T22:28:38.301Z,1.60
2023-03-28T22:31:42.019Z,1.60
2023-03-28T22:34:45.083Z,1.60
2023-03-28T22:37:49.352Z,1.83
2023-03-28T22:40:52.252Z,1.77
2023-03-28T22:43:55.122Z,1.50
2023-03-28T22:47:02.308Z,1.83
2023-03-28T22:50:07.772Z,1.60
2023-03-28T22:53:14.232Z,1.63
2023-03-28T22:56:17.235Z,1.55
2023-03-28T22:59:20.119Z,2.22
2023-03-28T23:02:23.148Z,1.48
2023-03-28T23:05:26.092Z,1.70
2023-03-28T23:08:31.107Z,1.70
2023-03-28T23:11:34.053Z,1.77
2023-03-28T23:14:36.988Z,1.60
2023-03-28T23:17:40.193Z,1.58
2023-03-28T23:20:43.697Z,1.80
2023-03-28T23:23:48.277Z,1.40
2023-03-28T23:26:51.338Z,1.35
2023-03-28T23:29:54.227Z,1.40
2023-03-28T23:32:57.273Z,1.45
2023-03-28T23:36:00.254Z,1.70
2023-03-28T23:39:05.277Z,1.80
2023-03-28T23:42:08.184Z,1.40
2023-03-28T23:45:12.074Z,1.33
2023-03-28T23:48:14.958Z,1.40
2023-03-28T23:51:18.023Z,1.45
2023-03-28T23:54:22.349Z,1.30
2023-03-28T23:57:28.464Z,1.50
